• Join FlightAware (Why Join?)
  • Login
  • US Flag 
12:59PM EDT


 

Airport Tracker/Info


-or-


 

Live Flight TrackerFlight Track Log ✈ FSR511 ✈ 24-Oct-2013 ✈ KRDU - KCMI

Flight Track Log - Related Links

Times and Time Zones

All times are in EDT time to prevent confusion due to time zone crossing. See the FSR511 flight status page for this flight to view local times or setup timezone preferences in your user account.

Time Position Orientation Groundspeed Altitude Reporting Facility
EDT Latitude Longitude Course Direction KTS MPH feet Rate Location/Type
08:47AM 35.8561 -78.8083 302° West 174 200 1,100  Level Washington Center
08:48AM 35.8286 -78.8303 213° Southwest 207 238 2,900 2,760 Climbing Washington Center
08:48AM 35.8111 -78.8550 229° Southwest 232 267 4,000 2,820 Climbing Washington Center
08:49AM 35.8153 -78.9372 274° West 249 287 6,900 2,640 Climbing Washington Center
08:49AM 35.8175 -78.9244 78° East 240 276 6,800 240 Descending Washington Center
08:50AM 35.8233 -79.0169 274° West 245 282 7,200 1,860 Climbing Washington Center
08:51AM 35.8231 -79.0964 270° West 250 288 10,600 2,940 Climbing Washington Center
08:52AM 35.8267 -79.1836 273° West 268 308 13,200 3,420 Climbing Washington Center
08:53AM 36.0902 -79.2108 302° West  Level Estimated
08:54AM 35.8314 -79.3617 272° West 304 350 19,800  Level Atlanta Center
08:55AM 35.8208 -79.4700 263° West 315 362 22,900 2,400 Climbing Atlanta Center
08:56AM 35.8083 -79.5808 262° West 328 377 24,600 2,040 Climbing Atlanta Center
08:57AM 35.7875 -79.6972 258° West 339 390 27,000 2,460 Climbing Atlanta Center
08:58AM 35.7686 -79.8133 259° West 344 396 29,600 2,700 Climbing Atlanta Center
08:59AM 35.7519 -79.9369 261° West 344 396 32,500 2,160 Climbing Atlanta Center
09:00AM 35.7786 -80.0483 286° West 330 380 34,000 1,320 Climbing Atlanta Center
09:01AM 35.8156 -80.1642 292° West 341 392 35,200 1,500 Climbing Atlanta Center
09:02AM 35.8753 -80.2664 306° West 351 404 37,000 1,620 Climbing Atlanta Center
09:03AM 35.9450 -80.3658 311° West 366 421 38,500 1,440 Climbing Atlanta Center
09:04AM 35.9889 -80.4458 304° West 357 411 39,900 720 Climbing Atlanta Center
09:05AM 36.0461 -80.5461 305° West 351 404 40,000 420 Climbing Atlanta Center
09:06AM 36.1161 -80.6614 307° West 368 423 40,800 780 Climbing Atlanta Center
09:07AM 36.1753 -80.7644 305° West 374 430 41,600 660 Climbing Atlanta Center
09:08AM 36.2342 -80.8675 305° West 374 430 42,200 540 Climbing Atlanta Center
09:09AM 36.2953 -80.9758 305° West 374 430 42,700 360 Climbing Atlanta Center
09:10AM 36.3583 -81.0817 307° West 374 430 43,000 120 Climbing Atlanta Center
09:11AM 36.4172 -81.1878 305° West 374 430 43,000  Level Atlanta Center
09:12AM 36.4736 -81.2839 306° West 379 436 43,000  Level Atlanta Center
09:13AM 36.5300 -81.3853 305° West 374 430 43,000  Level Atlanta Center
09:14AM 36.5886 -81.4919 304° West 374 430 43,000  Level Atlanta Center
09:16AM 36.6892 -81.6692 305° West 377 434 43,000  Level Indianapolis Center
09:17AM 36.7614 -81.7978 305° West 386 444 43,000  Level Indianapolis Center
09:18AM 36.8233 -81.9083 305° West 387 445 43,000  Level Indianapolis Center
09:19AM 36.8839 -82.0186 304° West 387 445 43,000  Level Indianapolis Center
09:20AM 36.9456 -82.1303 305° West 389 448 43,000  Level Indianapolis Center
09:21AM 37.0075 -82.2411 305° West 389 448 43,000  Level Indianapolis Center
09:22AM 37.0778 -82.3708 304° West 388 447 43,000  Level Indianapolis Center
09:23AM 37.1381 -82.4819 304° West 387 445 43,000  Level Indianapolis Center
09:24AM 37.1989 -82.5931 305° West 389 448 43,000  Level Indianapolis Center
09:25AM 37.2594 -82.7042 304° West 388 447 43,000  Level Indianapolis Center
09:26AM 37.3189 -82.8142 304° West 384 442 43,000  Level Indianapolis Center
09:27AM 37.3894 -82.9456 304° West 389 448 43,000  Level Indianapolis Center
09:28AM 37.4494 -83.0583 304° West 390 449 43,000  Level Indianapolis Center
09:29AM 37.5097 -83.1700 304° West 387 445 43,000  Level Indianapolis Center
09:30AM 37.5700 -83.2819 304° West 386 444 43,000  Level Indianapolis Center
09:31AM 37.6400 -83.4147 304° West 389 448 43,000  Level Indianapolis Center
09:32AM 37.6997 -83.5289 303° West 390 449 43,000  Level Indianapolis Center
09:33AM 37.7617 -83.6442 304° West 394 453 43,000  Level Indianapolis Center
09:34AM 37.8222 -83.7597 304° West 395 455 43,000  Level Indianapolis Center
09:35AM 37.8831 -83.8750 304° West 395 455 43,000  Level Indianapolis Center
09:36AM 37.9419 -83.9894 303° West 390 449 43,000  Level Indianapolis Center
09:37AM 38.0125 -84.1217 304° West 388 447 43,000  Level Indianapolis Center
09:38AM 38.0697 -84.2344 303° West 381 438 43,000  Level Indianapolis Center
09:39AM 38.1269 -84.3461 303° West 378 435 43,000  Level Indianapolis Center
09:40AM 38.1842 -84.4539 304° West 370 426 43,000  Level Indianapolis Center
09:41AM 38.2394 -84.5631 303° West 367 422 43,000  Level Indianapolis Center
09:42AM 38.3042 -84.6889 303° West 365 420 43,000  Level Indianapolis Center
09:43AM 38.3592 -84.7978 303° West 364 419 43,000  Level Indianapolis Center
09:44AM 38.4158 -84.9086 303° West 370 426 43,000  Level Indianapolis Center
09:46AM 38.4703 -85.0175 303° West 365 420 43,000  Level Indianapolis Center
09:47AM 38.5267 -85.1250 304° West 364 419 43,000  Level Indianapolis Center
09:48AM 38.5831 -85.2406 302° West 367 422 43,000  Level Indianapolis Center
09:49AM 38.6369 -85.3458 303° West 369 425 43,000  Level Indianapolis Center
09:50AM 38.7031 -85.4786 303° West 369 425 43,000  Level Indianapolis Center
09:51AM 38.7578 -85.5897 302° West 369 425 43,000 -300 Level Indianapolis Center
09:52AM 38.8136 -85.7003 303° West 370 426 42,400 -1,020 Descending Indianapolis Center
09:53AM 38.8697 -85.8139 302° West 376 433 40,900 -1,500 Descending Indianapolis Center
09:54AM 38.9272 -85.9294 303° West 382 440 39,400 -1,740 Descending Indianapolis Center
09:55AM 38.9808 -86.0403 302° West 370 426 37,400 -1,680 Descending Indianapolis Center
09:56AM 39.0422 -86.1661 302° West 348 400 36,000 -720 Descending Indianapolis Center
09:57AM 39.0911 -86.2672 302° West 337 388 36,000 -600 Level Indianapolis Center
09:58AM 39.1406 -86.3686 302° West 334 384 34,800 -1,500 Descending Indianapolis Center
09:59AM 39.1917 -86.4739 302° West 343 395 33,000 -1,860 Descending Indianapolis Center
10:00AM 39.2428 -86.5786 302° West 345 397 31,000 -2,160 Descending Indianapolis Center
10:01AM 39.2908 -86.6806 301° West 336 387 28,600 -2,520 Descending Indianapolis Center
10:02AM 39.3486 -86.8011 302° West 330 380 25,800 -2,820 Descending Indianapolis Center
10:03AM 39.3975 -86.9011 302° West 329 379 22,800 -2,940 Descending Indianapolis Center
10:04AM 39.4439 -87.0003 301° West 324 373 19,800 -2,580 Descending Indianapolis Center
10:05AM 39.4950 -87.1089 301° West 326 375 17,500 -2,040 Descending Indianapolis Center
10:06AM 39.5403 -87.2042 302° West 332 382 15,600 -1,920 Descending Indianapolis Center
10:07AM 39.5892 -87.3050 302° West 334 384 13,600 -2,160 Descending Indianapolis Center
10:08AM 39.6431 -87.4225 301° West 321 369 11,200 -1,260 Descending Indianapolis Center
10:09AM 39.6878 -87.5183 301° West 314 361 11,000 -120 Descending Indianapolis Center
10:10AM 39.7303 -87.6089 301° West 300 345 11,000 -240 Level Indianapolis Center
10:11AM 39.7692 -87.6911 302° West 278 320 10,600 -1,200 Descending Indianapolis Center
10:12AM 39.8017 -87.7706 298° West 257 296 8,600 -1,980 Descending Indianapolis Center
10:13AM 39.8347 -87.8550 297° West 259 298 6,600 -1,620 Descending Indianapolis Center
10:14AM 39.8711 -87.9453 298° West 261 300 5,300 -1,260 Descending Indianapolis Center
10:17AM 39.9767 -88.1468 294° West  Level FlightAware Approximate
10:24AM 40.0333 -88.2667 311° West  Level FlightAware Approximate
10:25AM 40.0388 -88.2778 311° West  Level Estimated
10:26AM 40.0388 -88.2778 311° West  Level Estimated
10:27AM 40.0388 -88.2778 311° West  Level Estimated
10:28AM 40.0388 -88.2778 311° West  Level Estimated